Boyd, Texas
Current Conditions -  °F | °C
As of 4:55 AM on Saturday 25 Oct 2014 (Local Time) from KLUD Reporting Station
Clear Clear  
Wind Chill: 65°   Ceiling: Unl
Heat Index: 65°   Visibility: 10mi
Dew Point: 58°   Wind: 6mph
Humidity: 77%   Direction: 160°SSE
Pressure: 30.09"   Gusts: NA
Location:  33.08°N, 97.57°W
Report Text: KLUD 250955Z AUTO 16005KT 10SM CLR 19/15 A3009 RMK AO2 T01850145
Loading
Personal Weather Stations






























Interactive Weather Map
Tropical Storm Tracking
New forecast layout! Learn more

10-Day Weather Forecast

Advertisements
Track Severe Weather on mobile